sensor_id;sensor_type;location;lat;lon;timestamp;P1;durP1;ratioP1;P2;durP2;ratioP2
25015;SDS011;13029;46.286;7.488;2023-04-01T00:00:29;2.42;;;0.85;;
25015;SDS011;13029;46.286;7.488;2023-04-01T00:02:54;0.75;;;0.50;;
25015;SDS011;13029;46.286;7.488;2023-04-01T00:05:20;0.65;;;0.40;;
25015;SDS011;13029;46.286;7.488;2023-04-01T00:07:46;2.92;;;0.40;;
25015;SDS011;13029;46.286;7.488;2023-04-01T00:10:11;0.50;;;0.50;;
25015;SDS011;13029;46.286;7.488;2023-04-01T00:12:38;0.52;;;0.40;;
25015;SDS011;13029;46.286;7.488;2023-04-01T00:15:09;1.27;;;0.50;;
25015;SDS011;13029;46.286;7.488;2023-04-01T00:17:35;1.33;;;0.40;;
25015;SDS011;13029;46.286;7.488;2023-04-01T00:20:01;0.50;;;0.40;;
25015;SDS011;13029;46.286;7.488;2023-04-01T00:22:27;1.13;;;0.47;;
25015;SDS011;13029;46.286;7.488;2023-04-01T00:24:53;1.00;;;0.50;;
25015;SDS011;13029;46.286;7.488;2023-04-01T00:27:18;0.57;;;0.40;;
25015;SDS011;13029;46.286;7.488;2023-04-01T00:29:44;0.85;;;0.47;;
25015;SDS011;13029;46.286;7.488;2023-04-01T00:32:11;0.75;;;0.40;;
25015;SDS011;13029;46.286;7.488;2023-04-01T00:34:37;1.05;;;0.40;;
25015;SDS011;13029;46.286;7.488;2023-04-01T00:37:02;0.40;;;0.40;;
25015;SDS011;13029;46.286;7.488;2023-04-01T00:39:29;0.80;;;0.50;;
25015;SDS011;13029;46.286;7.488;2023-04-01T00:41:55;1.02;;;0.40;;
25015;SDS011;13029;46.286;7.488;2023-04-01T00:44:25;1.45;;;0.52;;
25015;SDS011;13029;46.286;7.488;2023-04-01T00:46:52;0.40;;;0.40;;
25015;SDS011;13029;46.286;7.488;2023-04-01T00:49:18;2.90;;;0.57;;
25015;SDS011;13029;46.286;7.488;2023-04-01T00:51:47;1.33;;;0.50;;
25015;SDS011;13029;46.286;7.488;2023-04-01T00:54:14;0.40;;;0.40;;
25015;SDS011;13029;46.286;7.488;2023-04-01T00:57:04;2.13;;;0.47;;
25015;SDS011;13029;46.286;7.488;2023-04-01T00:59:27;1.42;;;0.40;;
25015;SDS011;13029;46.286;7.488;2023-04-01T01:01:55;2.00;;;1.20;;
25015;SDS011;13029;46.286;7.488;2023-04-01T01:04:31;19.27;;;3.47;;
25015;SDS011;13029;46.286;7.488;2023-04-01T01:12:34;3.65;;;3.03;;
25015;SDS011;13029;46.286;7.488;2023-04-01T01:15:25;195.57;;;9.05;;
25015;SDS011;13029;46.286;7.488;2023-04-01T01:31:56;0.60;;;0.50;;
25015;SDS011;13029;46.286;7.488;2023-04-01T01:36:58;2.45;;;1.75;;
25015;SDS011;13029;46.286;7.488;2023-04-01T01:39:26;1.30;;;1.20;;
25015;SDS011;13029;46.286;7.488;2023-04-01T01:41:55;1.23;;;0.90;;
25015;SDS011;13029;46.286;7.488;2023-04-01T01:44:21;1.33;;;0.70;;
25015;SDS011;13029;46.286;7.488;2023-04-01T01:46:46;1.50;;;0.45;;
25015;SDS011;13029;46.286;7.488;2023-04-01T01:49:12;1.00;;;0.50;;
25015;SDS011;13029;46.286;7.488;2023-04-01T01:51:39;0.57;;;0.38;;
25015;SDS011;13029;46.286;7.488;2023-04-01T01:54:05;1.65;;;0.40;;
25015;SDS011;13029;46.286;7.488;2023-04-01T01:56:30;0.88;;;0.35;;
25015;SDS011;13029;46.286;7.488;2023-04-01T01:59:00;0.40;;;0.40;;
25015;SDS011;13029;46.286;7.488;2023-04-01T02:01:29;1.85;;;0.50;;
25015;SDS011;13029;46.286;7.488;2023-04-01T02:03:57;0.30;;;0.30;;
25015;SDS011;13029;46.286;7.488;2023-04-01T02:06:23;0.43;;;0.38;;
25015;SDS011;13029;46.286;7.488;2023-04-01T02:08:51;1.90;;;0.40;;
25015;SDS011;13029;46.286;7.488;2023-04-01T02:11:22;0.35;;;0.30;;
25015;SDS011;13029;46.286;7.488;2023-04-01T02:13:55;0.40;;;0.40;;
25015;SDS011;13029;46.286;7.488;2023-04-01T02:16:23;0.35;;;0.30;;
25015;SDS011;13029;46.286;7.488;2023-04-01T02:18:52;2.25;;;0.80;;
25015;SDS011;13029;46.286;7.488;2023-04-01T02:21:19;1.75;;;0.85;;
25015;SDS011;13029;46.286;7.488;2023-04-01T02:23:46;1.10;;;0.70;;
25015;SDS011;13029;46.286;7.488;2023-04-01T02:26:12;2.17;;;0.80;;
25015;SDS011;13029;46.286;7.488;2023-04-01T02:28:38;2.00;;;0.82;;
25015;SDS011;13029;46.286;7.488;2023-04-01T02:31:04;1.58;;;0.57;;
25015;SDS011;13029;46.286;7.488;2023-04-01T02:33:30;2.08;;;0.75;;
25015;SDS011;13029;46.286;7.488;2023-04-01T02:35:55;2.67;;;0.60;;
25015;SDS011;13029;46.286;7.488;2023-04-01T02:38:21;4.00;;;0.60;;
25015;SDS011;13029;46.286;7.488;2023-04-01T02:40:49;0.30;;;0.30;;
25015;SDS011;13029;46.286;7.488;2023-04-01T02:43:15;1.25;;;0.65;;
25015;SDS011;13029;46.286;7.488;2023-04-01T02:45:41;2.25;;;0.47;;
25015;SDS011;13029;46.286;7.488;2023-04-01T02:48:07;1.95;;;0.50;;
25015;SDS011;13029;46.286;7.488;2023-04-01T02:50:33;1.45;;;1.23;;
25015;SDS011;13029;46.286;7.488;2023-04-01T02:52:58;0.85;;;0.40;;
25015;SDS011;13029;46.286;7.488;2023-04-01T02:55:23;0.93;;;0.50;;
25015;SDS011;13029;46.286;7.488;2023-04-01T02:57:49;249.15;;;8.27;;
25015;SDS011;13029;46.286;7.488;2023-04-01T03:00:14;210.18;;;9.73;;
25015;SDS011;13029;46.286;7.488;2023-04-01T03:02:40;486.88;;;15.07;;
25015;SDS011;13029;46.286;7.488;2023-04-01T03:05:06;194.73;;;9.93;;
25015;SDS011;13029;46.286;7.488;2023-04-01T03:07:32;39.88;;;3.92;;
25015;SDS011;13029;46.286;7.488;2023-04-01T03:09:57;1.60;;;1.33;;
25015;SDS011;13029;46.286;7.488;2023-04-01T03:12:22;0.50;;;0.47;;
25015;SDS011;13029;46.286;7.488;2023-04-01T03:14:48;3.22;;;0.60;;
25015;SDS011;13029;46.286;7.488;2023-04-01T03:17:13;0.65;;;0.50;;
25015;SDS011;13029;46.286;7.488;2023-04-01T03:19:38;0.50;;;0.50;;
25015;SDS011;13029;46.286;7.488;2023-04-01T03:22:03;1.92;;;0.60;;
25015;SDS011;13029;46.286;7.488;2023-04-01T03:24:29;0.45;;;0.38;;
25015;SDS011;13029;46.286;7.488;2023-04-01T03:26:54;1.98;;;0.50;;
25015;SDS011;13029;46.286;7.488;2023-04-01T03:29:19;2.38;;;0.40;;
25015;SDS011;13029;46.286;7.488;2023-04-01T03:31:45;1.02;;;0.40;;
25015;SDS011;13029;46.286;7.488;2023-04-01T03:34:10;0.57;;;0.40;;
25015;SDS011;13029;46.286;7.488;2023-04-01T03:36:36;1.05;;;0.40;;
25015;SDS011;13029;46.286;7.488;2023-04-01T03:39:01;1.08;;;0.50;;
25015;SDS011;13029;46.286;7.488;2023-04-01T03:41:28;1.92;;;0.70;;
25015;SDS011;13029;46.286;7.488;2023-04-01T03:43:54;2.05;;;0.60;;
25015;SDS011;13029;46.286;7.488;2023-04-01T03:46:19;0.73;;;0.40;;
25015;SDS011;13029;46.286;7.488;2023-04-01T03:48:45;0.40;;;0.40;;
25015;SDS011;13029;46.286;7.488;2023-04-01T03:51:10;0.88;;;0.45;;
25015;SDS011;13029;46.286;7.488;2023-04-01T03:53:36;0.88;;;0.68;;
25015;SDS011;13029;46.286;7.488;2023-04-01T03:56:05;0.63;;;0.40;;
25015;SDS011;13029;46.286;7.488;2023-04-01T03:58:31;2.05;;;0.90;;
25015;SDS011;13029;46.286;7.488;2023-04-01T04:00:56;0.85;;;0.40;;
25015;SDS011;13029;46.286;7.488;2023-04-01T04:03:21;0.80;;;0.50;;
25015;SDS011;13029;46.286;7.488;2023-04-01T04:05:48;0.50;;;0.40;;
25015;SDS011;13029;46.286;7.488;2023-04-01T04:08:13;2.17;;;0.60;;
25015;SDS011;13029;46.286;7.488;2023-04-01T04:10:39;0.30;;;0.30;;
25015;SDS011;13029;46.286;7.488;2023-04-01T04:13:04;1.20;;;0.50;;
25015;SDS011;13029;46.286;7.488;2023-04-01T04:15:30;0.50;;;0.40;;
25015;SDS011;13029;46.286;7.488;2023-04-01T04:17:55;0.55;;;0.55;;
25015;SDS011;13029;46.286;7.488;2023-04-01T04:20:20;2.10;;;0.57;;
25015;SDS011;13029;46.286;7.488;2023-04-01T04:22:46;3.47;;;0.50;;
25015;SDS011;13029;46.286;7.488;2023-04-01T04:25:11;0.60;;;0.50;;
25015;SDS011;13029;46.286;7.488;2023-04-01T04:27:36;0.38;;;0.32;;
25015;SDS011;13029;46.286;7.488;2023-04-01T04:30:02;0.38;;;0.38;;
25015;SDS011;13029;46.286;7.488;2023-04-01T04:32:28;0.85;;;0.47;;
25015;SDS011;13029;46.286;7.488;2023-04-01T04:34:53;0.95;;;0.45;;
25015;SDS011;13029;46.286;7.488;2023-04-01T04:37:18;0.65;;;0.60;;
25015;SDS011;13029;46.286;7.488;2023-04-01T04:39:44;1.20;;;0.50;;
25015;SDS011;13029;46.286;7.488;2023-04-01T04:42:09;2.50;;;0.70;;
25015;SDS011;13029;46.286;7.488;2023-04-01T04:44:34;1.45;;;0.52;;
25015;SDS011;13029;46.286;7.488;2023-04-01T04:47:00;1.38;;;0.45;;
25015;SDS011;13029;46.286;7.488;2023-04-01T04:49:26;0.43;;;0.43;;
25015;SDS011;13029;46.286;7.488;2023-04-01T04:51:51;1.35;;;0.45;;
25015;SDS011;13029;46.286;7.488;2023-04-01T04:54:17;1.13;;;0.80;;
25015;SDS011;13029;46.286;7.488;2023-04-01T04:56:42;1.15;;;0.45;;
25015;SDS011;13029;46.286;7.488;2023-04-01T04:59:08;1.42;;;0.52;;
25015;SDS011;13029;46.286;7.488;2023-04-01T05:01:33;1.58;;;0.50;;
25015;SDS011;13029;46.286;7.488;2023-04-01T05:03:59;0.85;;;0.40;;
25015;SDS011;13029;46.286;7.488;2023-04-01T05:06:24;0.35;;;0.35;;
25015;SDS011;13029;46.286;7.488;2023-04-01T05:08:50;1.45;;;0.40;;
25015;SDS011;13029;46.286;7.488;2023-04-01T05:11:16;1.23;;;0.40;;
25015;SDS011;13029;46.286;7.488;2023-04-01T05:13:43;0.43;;;0.40;;
25015;SDS011;13029;46.286;7.488;2023-04-01T05:16:09;0.60;;;0.40;;
25015;SDS011;13029;46.286;7.488;2023-04-01T05:18:35;1.65;;;0.50;;
25015;SDS011;13029;46.286;7.488;2023-04-01T05:21:00;0.20;;;0.20;;
25015;SDS011;13029;46.286;7.488;2023-04-01T05:23:26;1.23;;;0.40;;
25015;SDS011;13029;46.286;7.488;2023-04-01T05:25:51;1.67;;;0.40;;
25015;SDS011;13029;46.286;7.488;2023-04-01T05:28:18;0.47;;;0.35;;
25015;SDS011;13029;46.286;7.488;2023-04-01T05:30:44;0.98;;;0.30;;
25015;SDS011;13029;46.286;7.488;2023-04-01T05:33:09;0.73;;;0.30;;
25015;SDS011;13029;46.286;7.488;2023-04-01T05:35:35;0.93;;;0.47;;
25015;SDS011;13029;46.286;7.488;2023-04-01T05:38:01;0.85;;;0.50;;
25015;SDS011;13029;46.286;7.488;2023-04-01T05:40:27;1.90;;;0.38;;
25015;SDS011;13029;46.286;7.488;2023-04-01T05:42:53;2.80;;;0.50;;
25015;SDS011;13029;46.286;7.488;2023-04-01T05:45:18;1.38;;;0.50;;
25015;SDS011;13029;46.286;7.488;2023-04-01T05:47:43;1.85;;;0.60;;
25015;SDS011;13029;46.286;7.488;2023-04-01T05:50:09;0.35;;;0.35;;
25015;SDS011;13029;46.286;7.488;2023-04-01T05:52:35;1.13;;;0.40;;
25015;SDS011;13029;46.286;7.488;2023-04-01T05:55:01;1.50;;;0.40;;
25015;SDS011;13029;46.286;7.488;2023-04-01T05:57:26;0.30;;;0.30;;
25015;SDS011;13029;46.286;7.488;2023-04-01T05:59:51;0.40;;;0.30;;
25015;SDS011;13029;46.286;7.488;2023-04-01T06:02:17;0.50;;;0.40;;
25015;SDS011;13029;46.286;7.488;2023-04-01T06:04:43;1.42;;;0.60;;
25015;SDS011;13029;46.286;7.488;2023-04-01T06:07:12;3.28;;;0.70;;
25015;SDS011;13029;46.286;7.488;2023-04-01T06:09:39;1.65;;;0.90;;
25015;SDS011;13029;46.286;7.488;2023-04-01T06:26:16;0.57;;;0.50;;
25015;SDS011;13029;46.286;7.488;2023-04-01T06:28:50;2.17;;;0.40;;
25015;SDS011;13029;46.286;7.488;2023-04-01T06:43:07;0.40;;;0.40;;
25015;SDS011;13029;46.286;7.488;2023-04-01T06:45:41;0.20;;;0.20;;
25015;SDS011;13029;46.286;7.488;2023-04-01T06:48:23;0.73;;;0.40;;
25015;SDS011;13029;46.286;7.488;2023-04-01T06:56:34;0.90;;;0.40;;
25015;SDS011;13029;46.286;7.488;2023-04-01T06:59:05;0.40;;;0.40;;
25015;SDS011;13029;46.286;7.488;2023-04-01T07:01:47;0.30;;;0.30;;
25015;SDS011;13029;46.286;7.488;2023-04-01T07:04:16;1.38;;;0.57;;
25015;SDS011;13029;46.286;7.488;2023-04-01T07:06:52;235.88;;;8.27;;
25015;SDS011;13029;46.286;7.488;2023-04-01T07:09:20;430.55;;;14.82;;
25015;SDS011;13029;46.286;7.488;2023-04-01T07:11:49;60.08;;;3.80;;
25015;SDS011;13029;46.286;7.488;2023-04-01T07:14:20;206.75;;;7.60;;
25015;SDS011;13029;46.286;7.488;2023-04-01T07:16:48;43.10;;;3.53;;
25015;SDS011;13029;46.286;7.488;2023-04-01T07:24:45;1.70;;;1.40;;
25015;SDS011;13029;46.286;7.488;2023-04-01T07:27:11;1.13;;;0.98;;
25015;SDS011;13029;46.286;7.488;2023-04-01T07:29:38;1.25;;;1.02;;
25015;SDS011;13029;46.286;7.488;2023-04-01T07:45:43;0.35;;;0.35;;
25015;SDS011;13029;46.286;7.488;2023-04-01T07:48:20;0.40;;;0.40;;
25015;SDS011;13029;46.286;7.488;2023-04-01T07:58:36;0.40;;;0.40;;
25015;SDS011;13029;46.286;7.488;2023-04-01T08:06:56;0.88;;;0.60;;
25015;SDS011;13029;46.286;7.488;2023-04-01T08:12:21;0.40;;;0.40;;
25015;SDS011;13029;46.286;7.488;2023-04-01T08:20:54;0.32;;;0.32;;
25015;SDS011;13029;46.286;7.488;2023-04-01T08:23:26;0.40;;;0.40;;
25015;SDS011;13029;46.286;7.488;2023-04-01T08:25:58;0.52;;;0.30;;
25015;SDS011;13029;46.286;7.488;2023-04-01T08:28:29;0.30;;;0.30;;
25015;SDS011;13029;46.286;7.488;2023-04-01T08:31:06;0.28;;;0.28;;
25015;SDS011;13029;46.286;7.488;2023-04-01T08:33:33;0.63;;;0.40;;
25015;SDS011;13029;46.286;7.488;2023-04-01T08:36:03;0.30;;;0.30;;
25015;SDS011;13029;46.286;7.488;2023-04-01T08:38:46;0.52;;;0.40;;
25015;SDS011;13029;46.286;7.488;2023-04-01T08:47:15;0.30;;;0.30;;
25015;SDS011;13029;46.286;7.488;2023-04-01T08:52:33;0.40;;;0.40;;
25015;SDS011;13029;46.286;7.488;2023-04-01T09:11:44;1.15;;;0.90;;
25015;SDS011;13029;46.286;7.488;2023-04-01T09:14:33;1.98;;;1.17;;
25015;SDS011;13029;46.286;7.488;2023-04-01T09:28:39;3.08;;;1.83;;
25015;SDS011;13029;46.286;7.488;2023-04-01T09:34:04;69.50;;;3.85;;
25015;SDS011;13029;46.286;7.488;2023-04-01T09:37:17;202.10;;;7.88;;
25015;SDS011;13029;46.286;7.488;2023-04-01T09:39:53;1.70;;;1.25;;
25015;SDS011;13029;46.286;7.488;2023-04-01T09:51:03;1.30;;;1.00;;
25015;SDS011;13029;46.286;7.488;2023-04-01T09:54:10;1.17;;;0.82;;
25015;SDS011;13029;46.286;7.488;2023-04-01T10:14:25;1.05;;;0.95;;
25015;SDS011;13029;46.286;7.488;2023-04-01T10:25:34;1.48;;;0.70;;
25015;SDS011;13029;46.286;7.488;2023-04-01T10:28:30;1.20;;;0.70;;
25015;SDS011;13029;46.286;7.488;2023-04-01T10:45:30;0.70;;;0.70;;
25015;SDS011;13029;46.286;7.488;2023-04-01T10:51:01;1.02;;;0.80;;
25015;SDS011;13029;46.286;7.488;2023-04-01T10:53:38;1.00;;;0.80;;
25015;SDS011;13029;46.286;7.488;2023-04-01T11:23:58;1.75;;;0.50;;
25015;SDS011;13029;46.286;7.488;2023-04-01T11:26:44;0.50;;;0.35;;
25015;SDS011;13029;46.286;7.488;2023-04-01T11:29:39;0.32;;;0.30;;
25015;SDS011;13029;46.286;7.488;2023-04-01T11:34:39;0.50;;;0.50;;
25015;SDS011;13029;46.286;7.488;2023-04-01T11:37:29;2.72;;;0.77;;
25015;SDS011;13029;46.286;7.488;2023-04-01T11:56:26;0.57;;;0.57;;
25015;SDS011;13029;46.286;7.488;2023-04-01T11:59:04;1.30;;;0.43;;
25015;SDS011;13029;46.286;7.488;2023-04-01T12:01:56;0.30;;;0.30;;
25015;SDS011;13029;46.286;7.488;2023-04-01T12:18:13;0.70;;;0.50;;
25015;SDS011;13029;46.286;7.488;2023-04-01T12:20:49;0.40;;;0.40;;
25015;SDS011;13029;46.286;7.488;2023-04-01T12:23:28;0.28;;;0.28;;
25015;SDS011;13029;46.286;7.488;2023-04-01T12:31:28;0.40;;;0.30;;
25015;SDS011;13029;46.286;7.488;2023-04-01T12:42:55;0.30;;;0.30;;
25015;SDS011;13029;46.286;7.488;2023-04-01T12:45:54;0.63;;;0.40;;
25015;SDS011;13029;46.286;7.488;2023-04-01T13:02:26;0.30;;;0.30;;
25015;SDS011;13029;46.286;7.488;2023-04-01T13:05:18;0.25;;;0.25;;
25015;SDS011;13029;46.286;7.488;2023-04-01T13:16:15;0.30;;;0.30;;
25015;SDS011;13029;46.286;7.488;2023-04-01T13:18:52;0.30;;;0.30;;
25015;SDS011;13029;46.286;7.488;2023-04-01T13:21:29;0.30;;;0.30;;
25015;SDS011;13029;46.286;7.488;2023-04-01T13:24:10;0.35;;;0.30;;
25015;SDS011;13029;46.286;7.488;2023-04-01T13:29:23;0.28;;;0.28;;
25015;SDS011;13029;46.286;7.488;2023-04-01T13:34:41;0.82;;;0.30;;
25015;SDS011;13029;46.286;7.488;2023-04-01T13:42:29;0.82;;;0.45;;
25015;SDS011;13029;46.286;7.488;2023-04-01T13:45:11;0.55;;;0.35;;
25015;SDS011;13029;46.286;7.488;2023-04-01T13:53:30;0.50;;;0.50;;
25015;SDS011;13029;46.286;7.488;2023-04-01T14:07:11;0.63;;;0.40;;
25015;SDS011;13029;46.286;7.488;2023-04-01T14:18:09;0.38;;;0.30;;
25015;SDS011;13029;46.286;7.488;2023-04-01T14:20:47;0.52;;;0.20;;
25015;SDS011;13029;46.286;7.488;2023-04-01T14:23:56;0.80;;;0.50;;
25015;SDS011;13029;46.286;7.488;2023-04-01T14:29:23;1.05;;;0.30;;
25015;SDS011;13029;46.286;7.488;2023-04-01T14:32:02;0.20;;;0.20;;
25015;SDS011;13029;46.286;7.488;2023-04-01T14:37:40;0.30;;;0.20;;
25015;SDS011;13029;46.286;7.488;2023-04-01T14:47:58;0.40;;;0.40;;
25015;SDS011;13029;46.286;7.488;2023-04-01T14:50:28;0.40;;;0.40;;
25015;SDS011;13029;46.286;7.488;2023-04-01T14:55:30;1.10;;;0.30;;
25015;SDS011;13029;46.286;7.488;2023-04-01T14:58:08;0.20;;;0.20;;
25015;SDS011;13029;46.286;7.488;2023-04-01T15:03:54;0.47;;;0.30;;
25015;SDS011;13029;46.286;7.488;2023-04-01T15:06:28;0.30;;;0.30;;
25015;SDS011;13029;46.286;7.488;2023-04-01T15:09:06;0.30;;;0.30;;
25015;SDS011;13029;46.286;7.488;2023-04-01T15:16:49;0.30;;;0.30;;
25015;SDS011;13029;46.286;7.488;2023-04-01T15:24:47;0.20;;;0.20;;
25015;SDS011;13029;46.286;7.488;2023-04-01T15:30:17;0.30;;;0.30;;
25015;SDS011;13029;46.286;7.488;2023-04-01T15:38:15;0.20;;;0.20;;
25015;SDS011;13029;46.286;7.488;2023-04-01T15:43:59;0.20;;;0.20;;
25015;SDS011;13029;46.286;7.488;2023-04-01T16:14:03;0.45;;;0.45;;
25015;SDS011;13029;46.286;7.488;2023-04-01T16:24:46;0.60;;;0.52;;
25015;SDS011;13029;46.286;7.488;2023-04-01T16:29:58;0.50;;;0.40;;
25015;SDS011;13029;46.286;7.488;2023-04-01T16:35:23;1.45;;;0.50;;
25015;SDS011;13029;46.286;7.488;2023-04-01T16:43:35;0.47;;;0.47;;
25015;SDS011;13029;46.286;7.488;2023-04-01T16:49:04;0.30;;;0.30;;
25015;SDS011;13029;46.286;7.488;2023-04-01T16:51:47;1.75;;;0.68;;
25015;SDS011;13029;46.286;7.488;2023-04-01T16:54:39;0.35;;;0.30;;
25015;SDS011;13029;46.286;7.488;2023-04-01T16:57:20;0.60;;;0.55;;
25015;SDS011;13029;46.286;7.488;2023-04-01T17:02:28;0.60;;;0.40;;
25015;SDS011;13029;46.286;7.488;2023-04-01T17:07:28;1.73;;;0.30;;
25015;SDS011;13029;46.286;7.488;2023-04-01T17:10:31;0.95;;;0.50;;
25015;SDS011;13029;46.286;7.488;2023-04-01T17:23:35;1.02;;;0.50;;
25015;SDS011;13029;46.286;7.488;2023-04-01T17:26:05;1.70;;;0.70;;
25015;SDS011;13029;46.286;7.488;2023-04-01T17:37:16;1.75;;;0.50;;
25015;SDS011;13029;46.286;7.488;2023-04-01T17:42:04;0.50;;;0.32;;
25015;SDS011;13029;46.286;7.488;2023-04-01T17:50:10;0.30;;;0.30;;
25015;SDS011;13029;46.286;7.488;2023-04-01T18:03:41;1.52;;;0.82;;
25015;SDS011;13029;46.286;7.488;2023-04-01T18:09:02;2.17;;;0.82;;
25015;SDS011;13029;46.286;7.488;2023-04-01T18:27:51;1.58;;;1.02;;
25015;SDS011;13029;46.286;7.488;2023-04-01T18:30:36;1.52;;;1.00;;
25015;SDS011;13029;46.286;7.488;2023-04-01T18:33:09;2.58;;;0.80;;
25015;SDS011;13029;46.286;7.488;2023-04-01T18:35:53;0.50;;;0.50;;
25015;SDS011;13029;46.286;7.488;2023-04-01T18:38:50;0.40;;;0.40;;
25015;SDS011;13029;46.286;7.488;2023-04-01T18:44:19;1.40;;;0.90;;
25015;SDS011;13029;46.286;7.488;2023-04-01T18:46:57;2.00;;;0.50;;
25015;SDS011;13029;46.286;7.488;2023-04-01T18:49:45;0.80;;;0.50;;
25015;SDS011;13029;46.286;7.488;2023-04-01T19:00:37;1.23;;;0.85;;
25015;SDS011;13029;46.286;7.488;2023-04-01T19:03:16;1.25;;;0.70;;
25015;SDS011;13029;46.286;7.488;2023-04-01T19:08:14;1.25;;;0.85;;
25015;SDS011;13029;46.286;7.488;2023-04-01T19:15:57;0.50;;;0.47;;
25015;SDS011;13029;46.286;7.488;2023-04-01T19:23:42;0.50;;;0.50;;
25015;SDS011;13029;46.286;7.488;2023-04-01T19:26:22;1.08;;;0.50;;
25015;SDS011;13029;46.286;7.488;2023-04-01T19:28:53;0.70;;;0.60;;
25015;SDS011;13029;46.286;7.488;2023-04-01T19:34:25;0.70;;;0.60;;
25015;SDS011;13029;46.286;7.488;2023-04-01T19:37:08;1.05;;;0.43;;
25015;SDS011;13029;46.286;7.488;2023-04-01T19:42:06;0.88;;;0.43;;
25015;SDS011;13029;46.286;7.488;2023-04-01T19:44:45;0.55;;;0.50;;
25015;SDS011;13029;46.286;7.488;2023-04-01T19:52:47;0.75;;;0.60;;
25015;SDS011;13029;46.286;7.488;2023-04-01T19:58:13;0.70;;;0.70;;
25015;SDS011;13029;46.286;7.488;2023-04-01T20:00:44;1.65;;;0.70;;
25015;SDS011;13029;46.286;7.488;2023-04-01T20:06:11;0.82;;;0.70;;
25015;SDS011;13029;46.286;7.488;2023-04-01T20:08:44;0.73;;;0.55;;
25015;SDS011;13029;46.286;7.488;2023-04-01T20:22:28;1.27;;;0.57;;
25015;SDS011;13029;46.286;7.488;2023-04-01T20:24:57;0.70;;;0.50;;
25015;SDS011;13029;46.286;7.488;2023-04-01T20:27:31;0.93;;;0.57;;
25015;SDS011;13029;46.286;7.488;2023-04-01T20:41:30;1.17;;;0.40;;
25015;SDS011;13029;46.286;7.488;2023-04-01T20:49:46;1.13;;;0.75;;
25015;SDS011;13029;46.286;7.488;2023-04-01T20:52:24;1.00;;;0.75;;
25015;SDS011;13029;46.286;7.488;2023-04-01T21:00:52;2.45;;;0.93;;
25015;SDS011;13029;46.286;7.488;2023-04-01T21:03:34;1.13;;;0.90;;
25015;SDS011;13029;46.286;7.488;2023-04-01T21:11:31;2.67;;;0.98;;
25015;SDS011;13029;46.286;7.488;2023-04-01T21:14:24;0.70;;;0.70;;
25015;SDS011;13029;46.286;7.488;2023-04-01T21:17:07;0.63;;;0.63;;
25015;SDS011;13029;46.286;7.488;2023-04-01T21:19:46;1.92;;;0.70;;
25015;SDS011;13029;46.286;7.488;2023-04-01T21:38:51;0.65;;;0.50;;
25015;SDS011;13029;46.286;7.488;2023-04-01T21:41:25;0.50;;;0.50;;
25015;SDS011;13029;46.286;7.488;2023-04-01T22:06:51;0.40;;;0.40;;
25015;SDS011;13029;46.286;7.488;2023-04-01T22:09:25;2.25;;;0.70;;
25015;SDS011;13029;46.286;7.488;2023-04-01T22:14:51;0.98;;;0.60;;
25015;SDS011;13029;46.286;7.488;2023-04-01T22:17:28;2.15;;;0.60;;
25015;SDS011;13029;46.286;7.488;2023-04-01T22:29:19;1.63;;;0.70;;
25015;SDS011;13029;46.286;7.488;2023-04-01T22:31:59;0.95;;;0.60;;
25015;SDS011;13029;46.286;7.488;2023-04-01T22:34:33;1.52;;;0.70;;
25015;SDS011;13029;46.286;7.488;2023-04-01T22:40:03;2.05;;;1.00;;
25015;SDS011;13029;46.286;7.488;2023-04-01T22:45:17;1.23;;;0.80;;
25015;SDS011;13029;46.286;7.488;2023-04-01T22:55:47;0.50;;;0.50;;
25015;SDS011;13029;46.286;7.488;2023-04-01T22:58:14;1.08;;;0.77;;
25015;SDS011;13029;46.286;7.488;2023-04-01T23:01:11;1.05;;;0.60;;
25015;SDS011;13029;46.286;7.488;2023-04-01T23:03:41;0.57;;;0.57;;
25015;SDS011;13029;46.286;7.488;2023-04-01T23:06:08;0.93;;;0.50;;
25015;SDS011;13029;46.286;7.488;2023-04-01T23:11:06;0.63;;;0.50;;
25015;SDS011;13029;46.286;7.488;2023-04-01T23:13:37;0.55;;;0.50;;
25015;SDS011;13029;46.286;7.488;2023-04-01T23:16:05;1.48;;;0.50;;
25015;SDS011;13029;46.286;7.488;2023-04-01T23:18:36;1.42;;;0.65;;
25015;SDS011;13029;46.286;7.488;2023-04-01T23:21:11;2.05;;;0.50;;
25015;SDS011;13029;46.286;7.488;2023-04-01T23:23:45;1.52;;;0.50;;
25015;SDS011;13029;46.286;7.488;2023-04-01T23:28:51;0.70;;;0.50;;
25015;SDS011;13029;46.286;7.488;2023-04-01T23:31:31;0.40;;;0.40;;
25015;SDS011;13029;46.286;7.488;2023-04-01T23:36:24;0.38;;;0.38;;
25015;SDS011;13029;46.286;7.488;2023-04-01T23:38:50;0.40;;;0.40;;
25015;SDS011;13029;46.286;7.488;2023-04-01T23:41:20;1.23;;;0.50;;
25015;SDS011;13029;46.286;7.488;2023-04-01T23:43:51;0.47;;;0.40;;
25015;SDS011;13029;46.286;7.488;2023-04-01T23:46:30;0.70;;;0.50;;
25015;SDS011;13029;46.286;7.488;2023-04-01T23:48:55;2.22;;;0.60;;
25015;SDS011;13029;46.286;7.488;2023-04-01T23:54:31;0.40;;;0.40;;
25015;SDS011;13029;46.286;7.488;2023-04-01T23:56:58;0.95;;;0.45;;
25015;SDS011;13029;46.286;7.488;2023-04-01T23:59:28;0.50;;;0.50;;
